sensor_id;sensor_type;location;lat;lon;timestamp;pressure;altitude;pressure_sealevel;temperature;humidity
1776;BME280;885;42.626;23.200;2023-04-03T00:00:42;142539.84;;;6.01;91.07
1776;BME280;885;42.626;23.200;2023-04-03T00:03:09;143279.25;;;6.04;91.48
1776;BME280;885;42.626;23.200;2023-04-03T00:05:36;143644.31;;;6.04;90.66
1776;BME280;885;42.626;23.200;2023-04-03T00:08:04;144354.44;;;5.94;91.92
1776;BME280;885;42.626;23.200;2023-04-03T00:10:33;146926.25;;;5.97;92.72
1776;BME280;885;42.626;23.200;2023-04-03T00:13:00;146559.78;;;5.97;91.71
1776;BME280;885;42.626;23.200;2023-04-03T00:15:27;146190.94;;;5.96;91.57
1776;BME280;885;42.626;23.200;2023-04-03T00:17:54;145818.53;;;5.94;91.45
1776;BME280;885;42.626;23.200;2023-04-03T00:20:21;146181.34;;;5.92;91.50
1776;BME280;885;42.626;23.200;2023-04-03T00:22:47;147663.00;;;5.99;92.09
1776;BME280;885;42.626;23.200;2023-04-03T00:25:16;147672.69;;;6.03;91.92
1776;BME280;885;42.626;23.200;2023-04-03T00:27:43;149143.03;;;6.04;92.60
1776;BME280;885;42.626;23.200;2023-04-03T00:30:13;148039.31;;;6.03;91.30
1776;BME280;885;42.626;23.200;2023-04-03T00:32:40;148772.66;;;6.03;92.38
1776;BME280;885;42.626;23.200;2023-04-03T00:35:08;149147.91;;;6.06;91.83
1776;BME280;885;42.626;23.200;2023-04-03T00:37:35;147286.78;;;5.95;90.57
1776;BME280;885;42.626;23.200;2023-04-03T00:40:03;146547.78;;;5.92;90.33
1776;BME280;885;42.626;23.200;2023-04-03T00:42:31;147287.94;;;5.95;90.54
1776;BME280;885;42.626;23.200;2023-04-03T00:45:23;147300.03;;;6.00;90.47
1776;BME280;885;42.626;23.200;2023-04-03T00:47:51;150218.75;;;5.94;93.45
1776;BME280;885;42.626;23.200;2023-04-03T00:50:18;152788.28;;;5.95;94.33
1776;BME280;885;42.626;23.200;2023-04-03T00:52:45;154622.44;;;5.94;95.01
1776;BME280;885;42.626;23.200;2023-04-03T00:55:15;156453.53;;;5.92;95.45
1776;BME280;885;42.626;23.200;2023-04-03T00:57:45;157185.63;;;5.91;94.68
1776;BME280;885;42.626;23.200;2023-04-03T01:00:15;154611.00;;;5.90;92.51
1776;BME280;885;42.626;23.200;2023-04-03T01:02:43;153498.38;;;5.85;92.38
1776;BME280;885;42.626;23.200;2023-04-03T01:05:10;156774.38;;;5.74;95.90
1776;BME280;885;42.626;23.200;2023-04-03T01:07:37;155284.00;;;5.65;93.29
1776;BME280;885;42.626;23.200;2023-04-03T01:10:07;156384.06;;;5.65;94.76
1776;BME280;885;42.626;23.200;2023-04-03T01:12:37;158225.41;;;5.67;95.99
1776;BME280;885;42.626;23.200;2023-04-03T01:15:08;159692.31;;;5.66;96.39
1776;BME280;885;42.626;23.200;2023-04-03T01:17:38;160815.94;;;5.74;96.02
1776;BME280;885;42.626;23.200;2023-04-03T01:20:36;159348.47;;;5.75;94.60
1776;BME280;885;42.626;23.200;2023-04-03T01:23:17;157510.22;;;5.75;93.22
1776;BME280;885;42.626;23.200;2023-04-03T01:25:50;156784.69;;;5.78;92.63
1776;BME280;885;42.626;23.200;2023-04-03T01:28:19;156042.56;;;5.75;92.25
1776;BME280;885;42.626;23.200;2023-04-03T01:30:51;155299.34;;;5.72;91.83
1776;BME280;885;42.626;23.200;2023-04-03T01:33:22;155287.88;;;5.67;92.51
1776;BME280;885;42.626;23.200;2023-04-03T01:35:49;157068.00;;;5.45;94.92
1776;BME280;885;42.626;23.200;2023-04-03T01:38:16;158905.19;;;5.46;95.58
1776;BME280;885;42.626;23.200;2023-04-03T01:40:43;159635.84;;;5.44;95.84
1776;BME280;885;42.626;23.200;2023-04-03T01:43:10;160011.03;;;5.47;95.60
1776;BME280;885;42.626;23.200;2023-04-03T01:45:36;159263.28;;;5.42;95.13
1776;BME280;885;42.626;23.200;2023-04-03T01:48:03;158884.28;;;5.38;94.41
1776;BME280;885;42.626;23.200;2023-04-03T01:50:32;159596.41;;;5.29;95.80
1776;BME280;885;42.626;23.200;2023-04-03T01:52:59;160686.28;;;5.25;96.45
1776;BME280;885;42.626;23.200;2023-04-03T01:55:26;161788.28;;;5.25;97.19
1776;BME280;885;42.626;23.200;2023-04-03T01:57:53;162520.41;;;5.24;97.42
1776;BME280;885;42.626;23.200;2023-04-03T02:00:20;163237.91;;;5.17;97.72
1776;BME280;885;42.626;23.200;2023-04-03T02:02:47;163597.28;;;5.14;97.89
1776;BME280;885;42.626;23.200;2023-04-03T02:05:14;163978.31;;;5.19;97.39
1776;BME280;885;42.626;23.200;2023-04-03T02:07:42;163239.22;;;5.18;96.61
1776;BME280;885;42.626;23.200;2023-04-03T02:10:09;163243.28;;;5.19;96.45
1776;BME280;885;42.626;23.200;2023-04-03T02:12:36;163963.41;;;5.14;97.82
1776;BME280;885;42.626;23.200;2023-04-03T02:15:04;165425.53;;;5.11;99.35
1776;BME280;885;42.626;23.200;2023-04-03T02:17:32;166524.53;;;5.08;100.00
1776;BME280;885;42.626;23.200;2023-04-03T02:19:59;166616.56;;;5.42;100.00
1776;BME280;885;42.626;23.200;2023-04-03T02:22:26;166638.53;;;5.50;100.00
1776;BME280;885;42.626;23.200;2023-04-03T02:24:54;166622.03;;;5.44;100.00
1776;BME280;885;42.626;23.200;2023-04-03T02:27:21;166616.56;;;5.42;100.00
1776;BME280;885;42.626;23.200;2023-04-03T02:29:49;166655.00;;;5.56;100.00
1776;BME280;885;42.626;23.200;2023-04-03T02:32:16;166628.94;;;5.46;100.00
1776;BME280;885;42.626;23.200;2023-04-03T02:34:43;166626.16;;;5.45;100.00
1776;BME280;885;42.626;23.200;2023-04-03T02:37:10;166622.03;;;5.44;100.00
1776;BME280;885;42.626;23.200;2023-04-03T02:39:37;166628.94;;;5.46;100.00
1776;BME280;885;42.626;23.200;2023-04-03T02:42:05;166606.91;;;5.38;99.88
1776;BME280;885;42.626;23.200;2023-04-03T02:44:32;166619.28;;;5.43;100.00
1776;BME280;885;42.626;23.200;2023-04-03T02:46:59;166622.03;;;5.44;100.00
1776;BME280;885;42.626;23.200;2023-04-03T02:49:26;166575.34;;;5.27;100.00
1776;BME280;885;42.626;23.200;2023-04-03T02:51:53;166587.72;;;5.31;100.00
1776;BME280;885;42.626;23.200;2023-04-03T02:54:20;166580.84;;;5.29;100.00
1776;BME280;885;42.626;23.200;2023-04-03T02:56:48;166597.31;;;5.35;100.00
1776;BME280;885;42.626;23.200;2023-04-03T02:59:16;166580.84;;;5.29;98.22
1776;BME280;885;42.626;23.200;2023-04-03T03:01:43;166561.59;;;5.22;97.44
1776;BME280;885;42.626;23.200;2023-04-03T03:04:10;166558.88;;;5.21;97.80
1776;BME280;885;42.626;23.200;2023-04-03T03:06:37;166543.78;;;5.15;98.19
1776;BME280;885;42.626;23.200;2023-04-03T03:09:04;166513.56;;;5.04;100.00
1776;BME280;885;42.626;23.200;2023-04-03T03:11:31;166523.16;;;5.08;100.00
1776;BME280;885;42.626;23.200;2023-04-03T03:13:58;166530.03;;;5.10;100.00
1776;BME280;885;42.626;23.200;2023-04-03T03:16:29;166524.53;;;5.08;99.88
1776;BME280;885;42.626;23.200;2023-04-03T03:18:56;166490.19;;;4.96;100.00
1776;BME280;885;42.626;23.200;2023-04-03T03:21:23;166486.09;;;4.94;100.00
1776;BME280;885;42.626;23.200;2023-04-03T03:23:49;166470.97;;;4.89;100.00
1776;BME280;885;42.626;23.200;2023-04-03T03:26:16;166498.41;;;4.99;100.00
1776;BME280;885;42.626;23.200;2023-04-03T03:28:43;166495.69;;;4.98;98.86
1776;BME280;885;42.626;23.200;2023-04-03T03:31:10;166483.31;;;4.93;100.00
1776;BME280;885;42.626;23.200;2023-04-03T03:33:39;166495.69;;;4.98;100.00
1776;BME280;885;42.626;23.200;2023-04-03T03:36:06;166488.81;;;4.95;100.00
1776;BME280;885;42.626;23.200;2023-04-03T03:38:33;166476.44;;;4.91;100.00
1776;BME280;885;42.626;23.200;2023-04-03T03:40:59;166477.84;;;4.91;100.00
1776;BME280;885;42.626;23.200;2023-04-03T03:43:27;166473.72;;;4.90;100.00
1776;BME280;885;42.626;23.200;2023-04-03T03:45:55;166480.59;;;4.92;100.00
1776;BME280;885;42.626;23.200;2023-04-03T03:48:22;166459.97;;;4.84;100.00
1776;BME280;885;42.626;23.200;2023-04-03T03:50:50;166473.72;;;4.90;99.04
1776;BME280;885;42.626;23.200;2023-04-03T03:53:17;166449.00;;;4.80;97.85
1776;BME280;885;42.626;23.200;2023-04-03T03:55:44;166466.84;;;4.87;98.00
1776;BME280;885;42.626;23.200;2023-04-03T03:58:11;166473.72;;;4.90;98.67
1776;BME280;885;42.626;23.200;2023-04-03T04:00:38;166477.84;;;4.91;99.95
1776;BME280;885;42.626;23.200;2023-04-03T04:03:05;166481.94;;;4.93;100.00
1776;BME280;885;42.626;23.200;2023-04-03T04:05:31;166503.91;;;5.01;100.00
1776;BME280;885;42.626;23.200;2023-04-03T04:08:00;166516.25;;;5.05;100.00
1776;BME280;885;42.626;23.200;2023-04-03T04:10:26;166572.56;;;5.26;100.00
1776;BME280;885;42.626;23.200;2023-04-03T04:12:53;166600.06;;;5.36;100.00
1776;BME280;885;42.626;23.200;2023-04-03T04:15:22;166615.16;;;5.41;100.00
1776;BME280;885;42.626;23.200;2023-04-03T04:17:50;166652.28;;;5.55;100.00
1776;BME280;885;42.626;23.200;2023-04-03T04:20:18;166657.78;;;5.57;100.00
1776;BME280;885;42.626;23.200;2023-04-03T04:22:45;166655.00;;;5.56;100.00
1776;BME280;885;42.626;23.200;2023-04-03T04:25:13;166649.50;;;5.54;100.00
1776;BME280;885;42.626;23.200;2023-04-03T04:27:40;166657.78;;;5.57;100.00
1776;BME280;885;42.626;23.200;2023-04-03T04:30:08;166682.47;;;5.66;100.00
1776;BME280;885;42.626;23.200;2023-04-03T04:32:35;166700.34;;;5.73;100.00
1776;BME280;885;42.626;23.200;2023-04-03T04:35:02;166732.03;;;5.84;100.00
1776;BME280;885;42.626;23.200;2023-04-03T04:37:30;166745.75;;;5.89;100.00
1776;BME280;885;42.626;23.200;2023-04-03T04:39:57;166770.50;;;5.98;100.00
1776;BME280;885;42.626;23.200;2023-04-03T04:42:25;166786.97;;;6.04;100.00
1776;BME280;885;42.626;23.200;2023-04-03T04:44:52;166810.34;;;6.13;100.00
1776;BME280;885;42.626;23.200;2023-04-03T04:47:19;166819.94;;;6.16;100.00
1776;BME280;885;42.626;23.200;2023-04-03T04:49:45;166851.59;;;6.28;100.00
1776;BME280;885;42.626;23.200;2023-04-03T04:52:16;166869.47;;;6.34;100.00
1776;BME280;885;42.626;23.200;2023-04-03T04:54:44;166874.97;;;6.36;100.00
1776;BME280;885;42.626;23.200;2023-04-03T04:57:11;166891.44;;;6.43;100.00
1776;BME280;885;42.626;23.200;2023-04-03T04:59:39;166902.44;;;6.47;100.00
1776;BME280;885;42.626;23.200;2023-04-03T05:02:06;166913.44;;;6.51;100.00
1776;BME280;885;42.626;23.200;2023-04-03T05:04:33;166927.16;;;6.56;100.00
1776;BME280;885;42.626;23.200;2023-04-03T05:07:00;166936.81;;;6.59;100.00
1776;BME280;885;42.626;23.200;2023-04-03T05:09:26;166943.72;;;6.62;100.00
1776;BME280;885;42.626;23.200;2023-04-03T05:11:53;166979.41;;;6.75;100.00
1776;BME280;885;42.626;23.200;2023-04-03T05:14:21;166987.69;;;6.78;100.00
1776;BME280;885;42.626;23.200;2023-04-03T05:16:49;167011.06;;;6.86;100.00
1776;BME280;885;42.626;23.200;2023-04-03T05:19:18;167013.78;;;6.87;100.00
1776;BME280;885;42.626;23.200;2023-04-03T05:21:45;167042.69;;;6.98;100.00
1776;BME280;885;42.626;23.200;2023-04-03T05:24:13;167064.69;;;7.06;99.76
1776;BME280;885;42.626;23.200;2023-04-03T05:26:41;167083.94;;;7.13;99.11
1776;BME280;885;42.626;23.200;2023-04-03T05:29:08;167097.72;;;7.18;98.59
1776;BME280;885;42.626;23.200;2023-04-03T05:31:35;167126.63;;;7.29;97.52
1776;BME280;885;42.626;23.200;2023-04-03T05:34:04;167148.63;;;7.37;97.15
1776;BME280;885;42.626;23.200;2023-04-03T05:36:31;167178.91;;;7.48;96.97
1776;BME280;885;42.626;23.200;2023-04-03T05:38:58;167203.63;;;7.57;95.27
1776;BME280;885;42.626;23.200;2023-04-03T05:41:25;167220.16;;;7.63;94.15
1776;BME280;885;42.626;23.200;2023-04-03T05:43:52;167247.72;;;7.73;94.21
1776;BME280;885;42.626;23.200;2023-04-03T05:46:19;167279.34;;;7.84;93.56
1776;BME280;885;42.626;23.200;2023-04-03T05:48:47;167295.84;;;7.90;92.69
1776;BME280;885;42.626;23.200;2023-04-03T05:51:17;167298.63;;;7.91;92.11
1776;BME280;885;42.626;23.200;2023-04-03T05:53:45;167322.03;;;8.00;92.68
1776;BME280;885;42.626;23.200;2023-04-03T05:56:13;167334.38;;;8.04;92.81
1776;BME280;885;42.626;23.200;2023-04-03T05:58:40;167353.66;;;8.12;92.02
1776;BME280;885;42.626;23.200;2023-04-03T06:01:06;167359.16;;;8.14;92.51
1776;BME280;885;42.626;23.200;2023-04-03T06:03:33;167378.47;;;8.21;91.74
1776;BME280;885;42.626;23.200;2023-04-03T06:06:03;167399.16;;;8.28;90.99
1776;BME280;885;42.626;23.200;2023-04-03T06:08:32;167408.78;;;8.32;91.18
1776;BME280;885;42.626;23.200;2023-04-03T06:10:59;167389.47;;;8.25;91.61
1776;BME280;885;42.626;23.200;2023-04-03T06:13:27;167417.06;;;8.35;90.78
1776;BME280;885;42.626;23.200;2023-04-03T06:15:56;167421.16;;;8.36;90.88
1776;BME280;885;42.626;23.200;2023-04-03T06:18:23;167439.06;;;8.43;90.33
1776;BME280;885;42.626;23.200;2023-04-03T06:20:50;167462.50;;;8.51;90.73
1776;BME280;885;42.626;23.200;2023-04-03T06:23:17;167510.72;;;8.69;90.11
1776;BME280;885;42.626;23.200;2023-04-03T06:25:45;167523.06;;;8.73;89.58
1776;BME280;885;42.626;23.200;2023-04-03T06:28:12;167540.97;;;8.80;89.09
1776;BME280;885;42.626;23.200;2023-04-03T06:30:39;167574.06;;;8.92;89.42
1776;BME280;885;42.626;23.200;2023-04-03T06:33:06;167579.56;;;8.94;88.07
1776;BME280;885;42.626;23.200;2023-04-03T06:35:33;167587.81;;;8.97;87.71
1776;BME280;885;42.626;23.200;2023-04-03T06:38:01;167603.00;;;9.03;86.38
1776;BME280;885;42.626;23.200;2023-04-03T06:40:29;167607.13;;;9.04;85.97
1776;BME280;885;42.626;23.200;2023-04-03T06:42:57;167623.63;;;9.10;85.74
1776;BME280;885;42.626;23.200;2023-04-03T06:45:24;167630.53;;;9.13;85.21
1776;BME280;885;42.626;23.200;2023-04-03T06:47:51;167619.53;;;9.09;84.44
1776;BME280;885;42.626;23.200;2023-04-03T06:50:18;167609.84;;;9.05;83.95
1776;BME280;885;42.626;23.200;2023-04-03T06:52:45;167576.78;;;8.93;85.15
1776;BME280;885;42.626;23.200;2023-04-03T06:55:12;167601.59;;;9.02;85.04
1776;BME280;885;42.626;23.200;2023-04-03T06:57:39;167607.13;;;9.04;85.17
1776;BME280;885;42.626;23.200;2023-04-03T07:00:08;167586.41;;;8.97;85.72
1776;BME280;885;42.626;23.200;2023-04-03T07:02:36;167607.13;;;9.04;86.46
1776;BME280;885;42.626;23.200;2023-04-03T07:05:03;167629.16;;;9.12;85.58
1776;BME280;885;42.626;23.200;2023-04-03T07:07:30;167673.22;;;9.28;84.73
1776;BME280;885;42.626;23.200;2023-04-03T07:09:59;167707.66;;;9.41;84.82
1776;BME280;885;42.626;23.200;2023-04-03T07:12:26;167731.09;;;9.49;84.28
1776;BME280;885;42.626;23.200;2023-04-03T07:14:52;167681.34;;;9.32;84.08
1776;BME280;885;42.626;23.200;2023-04-03T07:17:21;167681.34;;;9.32;84.14
1776;BME280;885;42.626;23.200;2023-04-03T07:19:48;167717.19;;;9.45;84.05
1776;BME280;885;42.626;23.200;2023-04-03T07:22:15;167757.16;;;9.60;82.52
1776;BME280;885;42.626;23.200;2023-04-03T07:24:42;167781.97;;;9.69;83.11
1776;BME280;885;42.626;23.200;2023-04-03T07:27:09;167808.13;;;9.79;81.30
1776;BME280;885;42.626;23.200;2023-04-03T07:29:38;167810.91;;;9.80;82.39
1776;BME280;885;42.626;23.200;2023-04-03T07:32:05;167834.34;;;9.88;82.12
1776;BME280;885;42.626;23.200;2023-04-03T07:34:34;167819.16;;;9.83;82.45
1776;BME280;885;42.626;23.200;2023-04-03T07:37:01;167808.13;;;9.79;82.49
1776;BME280;885;42.626;23.200;2023-04-03T07:39:28;167844.00;;;9.92;81.99
1776;BME280;885;42.626;23.200;2023-04-03T07:41:55;167882.56;;;10.06;81.20
1776;BME280;885;42.626;23.200;2023-04-03T07:44:22;167915.75;;;10.18;80.90
1776;BME280;885;42.626;23.200;2023-04-03T07:46:48;167547.59;;;10.19;79.60
1776;BME280;885;42.626;23.200;2023-04-03T07:49:16;167540.72;;;10.16;78.98
1776;BME280;885;42.626;23.200;2023-04-03T07:51:44;167522.78;;;10.10;79.38
1776;BME280;885;42.626;23.200;2023-04-03T07:54:12;167520.03;;;10.09;79.80
1776;BME280;885;42.626;23.200;2023-04-03T07:56:39;167549.00;;;10.19;79.97
1776;BME280;885;42.626;23.200;2023-04-03T07:59:06;167539.31;;;10.16;80.11
1776;BME280;885;42.626;23.200;2023-04-03T08:01:33;167135.50;;;10.04;81.04
1776;BME280;885;42.626;23.200;2023-04-03T08:04:00;167112.19;;;9.95;81.60
1776;BME280;885;42.626;23.200;2023-04-03T08:06:27;167136.91;;;10.04;80.22
1776;BME280;885;42.626;23.200;2023-04-03T08:08:58;167151.97;;;10.10;80.51
1776;BME280;885;42.626;23.200;2023-04-03T08:11:25;167167.16;;;10.15;80.92
1776;BME280;885;42.626;23.200;2023-04-03T08:13:53;167185.00;;;10.22;80.20
1776;BME280;885;42.626;23.200;2023-04-03T08:16:21;167157.50;;;10.12;79.84
1776;BME280;885;42.626;23.200;2023-04-03T08:18:50;167138.28;;;10.05;80.87
1776;BME280;885;42.626;23.200;2023-04-03T08:21:17;167088.84;;;9.87;81.88
1776;BME280;885;42.626;23.200;2023-04-03T08:23:44;167145.16;;;10.07;80.54
1776;BME280;885;42.626;23.200;2023-04-03T08:26:17;167171.25;;;10.17;80.46
1776;BME280;885;42.626;23.200;2023-04-03T08:28:44;167150.63;;;10.09;80.98
1776;BME280;885;42.626;23.200;2023-04-03T08:31:14;167183.63;;;10.21;80.48
1776;BME280;885;42.626;23.200;2023-04-03T08:33:41;167233.00;;;10.39;78.75
1776;BME280;885;42.626;23.200;2023-04-03T08:36:17;166852.50;;;10.36;78.50
1776;BME280;885;42.626;23.200;2023-04-03T08:38:44;166879.88;;;10.46;77.82
1776;BME280;885;42.626;23.200;2023-04-03T08:41:16;166907.25;;;10.56;78.14
1776;BME280;885;42.626;23.200;2023-04-03T08:43:56;166864.81;;;10.41;79.06
1776;BME280;885;42.626;23.200;2023-04-03T08:46:28;166870.31;;;10.43;78.29
1776;BME280;885;42.626;23.200;2023-04-03T08:48:58;166508.91;;;10.46;77.84
1776;BME280;885;42.626;23.200;2023-04-03T08:51:26;166929.16;;;10.64;78.36
1776;BME280;885;42.626;23.200;2023-04-03T08:53:57;166584.09;;;10.74;76.99
1776;BME280;885;42.626;23.200;2023-04-03T08:56:27;166541.69;;;10.58;77.74
1776;BME280;885;42.626;23.200;2023-04-03T08:58:56;166536.22;;;10.56;78.61
1776;BME280;885;42.626;23.200;2023-04-03T09:01:26;166529.38;;;10.54;79.22
1776;BME280;885;42.626;23.200;2023-04-03T09:03:56;166554.00;;;10.63;77.72
1776;BME280;885;42.626;23.200;2023-04-03T09:06:26;166161.16;;;10.55;78.07
1776;BME280;885;42.626;23.200;2023-04-03T09:09:09;166539.00;;;10.57;79.38
1776;BME280;885;42.626;23.200;2023-04-03T09:11:47;166181.59;;;10.62;78.28
1776;BME280;885;42.626;23.200;2023-04-03T09:14:22;166157.09;;;10.53;78.25
1776;BME280;885;42.626;23.200;2023-04-03T09:16:55;166158.41;;;10.54;78.94
1776;BME280;885;42.626;23.200;2023-04-03T09:19:31;166146.19;;;10.49;78.13
1776;BME280;885;42.626;23.200;2023-04-03T09:22:09;166172.06;;;10.59;78.07
1776;BME280;885;42.626;23.200;2023-04-03T09:24:39;166215.69;;;10.75;76.82
1776;BME280;885;42.626;23.200;2023-04-03T09:27:10;165856.88;;;10.79;76.85
1776;BME280;885;42.626;23.200;2023-04-03T09:29:40;165862.31;;;10.81;76.73
1776;BME280;885;42.626;23.200;2023-04-03T09:32:19;165862.31;;;10.81;76.29
1776;BME280;885;42.626;23.200;2023-04-03T09:34:47;165862.31;;;10.81;76.66
1776;BME280;885;42.626;23.200;2023-04-03T09:37:34;165502.06;;;10.85;76.23
1776;BME280;885;42.626;23.200;2023-04-03T09:40:03;165540.13;;;10.99;75.25
1776;BME280;885;42.626;23.200;2023-04-03T09:42:32;165568.63;;;11.10;74.88
1776;BME280;885;42.626;23.200;2023-04-03T09:45:01;165588.97;;;11.17;74.99
1776;BME280;885;42.626;23.200;2023-04-03T09:47:29;165273.22;;;11.38;73.40
1776;BME280;885;42.626;23.200;2023-04-03T09:50:18;164935.66;;;11.51;71.83
1776;BME280;885;42.626;23.200;2023-04-03T09:52:48;164930.25;;;11.49;72.08
1776;BME280;885;42.626;23.200;2023-04-03T09:55:16;164581.75;;;11.57;70.47
1776;BME280;885;42.626;23.200;2023-04-03T09:57:45;163860.41;;;11.65;67.85
1776;BME280;885;42.626;23.200;2023-04-03T10:00:21;163511.81;;;11.74;68.40
1776;BME280;885;42.626;23.200;2023-04-03T10:02:51;163132.34;;;11.71;67.57
1776;BME280;885;42.626;23.200;2023-04-03T10:05:31;163578.78;;;11.99;67.54
1776;BME280;885;42.626;23.200;2023-04-03T10:08:19;162460.16;;;11.98;65.77
1776;BME280;885;42.626;23.200;2023-04-03T10:11:06;161688.06;;;11.86;65.15
1776;BME280;885;42.626;23.200;2023-04-03T10:13:35;161327.28;;;11.90;65.91
1776;BME280;885;42.626;23.200;2023-04-03T10:16:06;161348.41;;;11.98;64.82
1776;BME280;885;42.626;23.200;2023-04-03T10:18:41;160978.34;;;11.99;65.58
1776;BME280;885;42.626;23.200;2023-04-03T10:21:14;160628.00;;;12.07;64.43
1776;BME280;885;42.626;23.200;2023-04-03T10:23:45;160265.78;;;12.11;64.65
1776;BME280;885;42.626;23.200;2023-04-03T10:26:24;160638.53;;;12.11;66.36
1776;BME280;885;42.626;23.200;2023-04-03T10:29:02;160265.78;;;12.11;65.93
1776;BME280;885;42.626;23.200;2023-04-03T10:31:36;159898.38;;;12.12;65.19
1776;BME280;885;42.626;23.200;2023-04-03T10:34:06;159534.84;;;12.15;64.53
1776;BME280;885;42.626;23.200;2023-04-03T10:36:37;159506.19;;;12.04;65.89
1776;BME280;885;42.626;23.200;2023-04-03T10:39:13;158719.53;;;11.87;65.47
1776;BME280;885;42.626;23.200;2023-04-03T10:41:52;159108.84;;;11.94;66.88
1776;BME280;885;42.626;23.200;2023-04-03T10:44:35;159103.63;;;11.92;67.23
1776;BME280;885;42.626;23.200;2023-04-03T10:47:09;158753.31;;;12.00;65.68
1776;BME280;885;42.626;23.200;2023-04-03T10:49:49;158735.09;;;11.93;66.77
1776;BME280;885;42.626;23.200;2023-04-03T10:52:22;158344.56;;;11.85;67.11
1776;BME280;885;42.626;23.200;2023-04-03T10:54:57;159106.28;;;11.93;69.20
1776;BME280;885;42.626;23.200;2023-04-03T10:57:27;159038.56;;;11.67;70.28
1776;BME280;885;42.626;23.200;2023-04-03T10:59:59;159437.00;;;11.77;71.77
1776;BME280;885;42.626;23.200;2023-04-03T11:02:29;159792.44;;;11.71;72.55
1776;BME280;885;42.626;23.200;2023-04-03T11:05:00;160174.03;;;11.75;73.36
1776;BME280;885;42.626;23.200;2023-04-03T11:07:29;160146.44;;;11.65;75.34
1776;BME280;885;42.626;23.200;2023-04-03T11:10:02;160495.22;;;11.56;76.39
1776;BME280;885;42.626;23.200;2023-04-03T11:12:38;160751.75;;;11.12;81.36
1776;BME280;885;42.626;23.200;2023-04-03T11:15:13;161084.34;;;10.98;82.38
1776;BME280;885;42.626;23.200;2023-04-03T11:17:45;161810.06;;;10.92;85.32
1776;BME280;885;42.626;23.200;2023-04-03T11:20:17;162858.56;;;10.68;90.37
1776;BME280;885;42.626;23.200;2023-04-03T11:22:48;163214.56;;;10.62;89.03
1776;BME280;885;42.626;23.200;2023-04-03T11:25:20;163562.53;;;10.54;90.14
1776;BME280;885;42.626;23.200;2023-04-03T11:27:52;164305.41;;;10.54;91.46
1776;BME280;885;42.626;23.200;2023-04-03T11:30:26;164633.00;;;10.38;92.82
1776;BME280;885;42.626;23.200;2023-04-03T11:33:05;165745.34;;;10.38;96.27
1776;BME280;885;42.626;23.200;2023-04-03T11:35:36;165701.84;;;10.22;93.44
1776;BME280;885;42.626;23.200;2023-04-03T11:38:05;165673.28;;;10.11;94.22
1776;BME280;885;42.626;23.200;2023-04-03T11:40:34;166396.84;;;10.05;95.42
1776;BME280;885;42.626;23.200;2023-04-03T11:43:07;166767.53;;;10.05;95.67
1776;BME280;885;42.626;23.200;2023-04-03T11:45:56;167163.00;;;10.14;96.66
1776;BME280;885;42.626;23.200;2023-04-03T11:48:52;167907.47;;;10.15;99.68
1776;BME280;885;42.626;23.200;2023-04-03T11:51:41;167874.44;;;10.02;100.00
1776;BME280;885;42.626;23.200;2023-04-03T11:54:43;167852.41;;;9.94;100.00
1776;BME280;885;42.626;23.200;2023-04-03T11:57:44;167882.75;;;10.05;100.00
1776;BME280;885;42.626;23.200;2023-04-03T12:00:51;167879.97;;;10.04;100.00
1776;BME280;885;42.626;23.200;2023-04-03T12:09:56;167846.88;;;9.92;100.00
1776;BME280;885;42.626;23.200;2023-04-03T12:12:33;167846.88;;;9.92;100.00
1776;BME280;885;42.626;23.200;2023-04-03T12:18:55;167755.91;;;9.58;100.00
1776;BME280;885;42.626;23.200;2023-04-03T12:21:22;167706.34;;;9.40;100.00
1776;BME280;885;42.626;23.200;2023-04-03T12:24:23;167731.09;;;9.49;100.00
1776;BME280;885;42.626;23.200;2023-04-03T12:27:02;167738.00;;;9.52;100.00
1776;BME280;885;42.626;23.200;2023-04-03T12:29:34;167718.69;;;9.45;100.00
1776;BME280;885;42.626;23.200;2023-04-03T12:32:14;167726.97;;;9.48;100.00
1776;BME280;885;42.626;23.200;2023-04-03T12:34:55;167696.66;;;9.37;100.00
1776;BME280;885;42.626;23.200;2023-04-03T12:37:40;167678.72;;;9.30;100.00
1776;BME280;885;42.626;23.200;2023-04-03T12:40:16;167605.72;;;9.04;100.00
1776;BME280;885;42.626;23.200;2023-04-03T12:43:09;167601.59;;;9.02;100.00
1776;BME280;885;42.626;23.200;2023-04-03T12:45:46;167569.91;;;8.91;100.00
1776;BME280;885;42.626;23.200;2023-04-03T12:48:17;167532.72;;;8.77;100.00
1776;BME280;885;42.626;23.200;2023-04-03T12:50:47;167492.81;;;8.62;100.00
1776;BME280;885;42.626;23.200;2023-04-03T12:53:18;167481.78;;;8.58;100.00
1776;BME280;885;42.626;23.200;2023-04-03T12:55:46;167425.34;;;8.38;100.00
1776;BME280;885;42.626;23.200;2023-04-03T12:58:15;167423.94;;;8.37;100.00
1776;BME280;885;42.626;23.200;2023-04-03T13:00:44;167410.16;;;8.32;100.00
1776;BME280;885;42.626;23.200;2023-04-03T13:03:23;167364.69;;;8.16;100.00
1776;BME280;885;42.626;23.200;2023-04-03T13:05:54;167331.66;;;8.03;100.00
1776;BME280;885;42.626;23.200;2023-04-03T13:08:23;167330.25;;;8.03;100.00
1776;BME280;885;42.626;23.200;2023-04-03T13:10:55;167319.25;;;7.99;100.00
1776;BME280;885;42.626;23.200;2023-04-03T13:13:23;167277.94;;;7.84;100.00
1776;BME280;885;42.626;23.200;2023-04-03T13:15:52;167302.75;;;7.93;100.00
1776;BME280;885;42.626;23.200;2023-04-03T13:18:29;167320.63;;;7.99;100.00
1776;BME280;885;42.626;23.200;2023-04-03T13:21:02;167288.97;;;7.88;100.00
1776;BME280;885;42.626;23.200;2023-04-03T13:23:30;167246.31;;;7.72;100.00
1776;BME280;885;42.626;23.200;2023-04-03T13:25:58;167254.56;;;7.75;100.00
1776;BME280;885;42.626;23.200;2023-04-03T13:28:30;167262.84;;;7.78;100.00
1776;BME280;885;42.626;23.200;2023-04-03T13:31:01;167232.53;;;7.67;100.00
1776;BME280;885;42.626;23.200;2023-04-03T13:33:31;167199.53;;;7.55;100.00
1776;BME280;885;42.626;23.200;2023-04-03T13:36:04;167195.41;;;7.54;100.00
1776;BME280;885;42.626;23.200;2023-04-03T13:38:32;167176.13;;;7.47;100.00
1776;BME280;885;42.626;23.200;2023-04-03T13:41:05;167195.41;;;7.54;100.00